This is the latest recevied weather packets stored in our database for station/object WW4HG. If no packets are shown the sender has not sent any weather packets the latest 10 day(s).
| Time | Temp. | Humidity | Pressure | Rain* | Wind** | Luminosity | Snow |
|---|---|---|---|---|---|---|---|
| 1777831762 | 17.78° C | 39% | 1021.1 hPa | 0 mm | - | 389 W/m² | - |
| 1777831461 | 17.78° C | 38% | 1021.1 hPa | 0 mm | - | 391 W/m² | - |
| 1777831156 | 17.78° C | 37% | 1021.1 hPa | 0 mm | - | 394 W/m² | - |
| 1777830854 | 17.78° C | 38% | 1021.1 hPa | 0 mm | - | 394 W/m² | - |
| 1777830549 | 17.22° C | 38% | 1021.4 hPa | 0 mm | - | 394 W/m² | - |
| 1777830248 | 17.22° C | 37% | 1021.1 hPa | 0 mm | - | 397 W/m² | - |
| 1777829943 | 17.22° C | 38% | 1021.1 hPa | 0 mm | - | 395 W/m² | - |
| 1777829640 | 17.22° C | 38% | 1021.4 hPa | 0 mm | - | 396 W/m² | - |
| 1777829336 | 17.78° C | 38% | 1021.4 hPa | 0 mm | - | 394 W/m² | - |
| 1777829034 | 17.78° C | 39% | 1021.1 hPa | 0 mm | - | 393 W/m² | - |
| 1777828730 | 17.78° C | 37% | 1021.4 hPa | 0 mm | - | 399 W/m² | - |
| 1777828427 | 17.78° C | 38% | 1021.4 hPa | 0 mm | - | 400 W/m² | - |
| 1777828125 | 17.78° C | 38% | 1021.4 hPa | 0 mm | - | 400 W/m² | - |
| 1777827821 | 17.78° C | 39% | 1021.4 hPa | 0 mm | - | 400 W/m² | - |
| 1777827517 | 17.78° C | 39% | 1021.4 hPa | 0 mm | - | 397 W/m² | - |
| 1777827216 | 17.78° C | 39% | 1021.4 hPa | 0 mm | - | 393 W/m² | - |
| 1777826911 | 17.78° C | 39% | 1021.1 hPa | 0 mm | - | 393 W/m² | - |
| 1777826609 | 17.78° C | 40% | 1021.4 hPa | 0 mm | - | 395 W/m² | - |
| 1777826305 | 17.22° C | 39% | 1021.7 hPa | 0 mm | - | 401 W/m² | - |
| 1777826003 | 17.22° C | 41% | 1021.4 hPa | 0 mm | - | 395 W/m² | - |
| 1777825699 | 17.78° C | 41% | - | 0 mm | - | - | - |
| 1777825397 | 17.78° C | 43% | 1008.9 hPa | 0 mm | - | 389 W/m² | - |
| 1777825094 | 17.78° C | 41% | 1008.9 hPa | 0 mm | - | 388 W/m² | - |
| 1777824790 | 17.78° C | 43% | - | 0 mm | - | - | - |
| 1777824487 | 17.22° C | 44% | 1021.7 hPa | 0 mm | - | 387 W/m² | - |
* Rain latest hour (hover to see other rain measurements)
** Current wind speed in m/s (hover to see current wind gust speed)